Time;durP1;ratioP1;P1;durP2;ratioP2;P2;SDS_P1;SDS_P2;PMS_P1;PMS_P2;Temp;Humidity;BMP_temperature;BMP_pressure;BME280_temperature;BME280_humidity;BME280_pressure;Samples;Min_cycle;Max_cycle;Signal;HPM_P1;HPM_P2
2023/01/13 00:01:21;;;;;;;6.82;3.30;;;;;;;;;;4958159;28;20493;-70
2023/01/13 00:03:47;;;;;;;9.40;4.15;;;;;;;;;;4965463;28;20065;-69
2023/01/13 00:06:19;;;;;;;7.35;4.40;;;;;;;;;;4962243;28;20150;-69
2023/01/13 00:08:49;;;;;;;6.68;3.85;;;;;;;;;;4957160;28;20085;-78
2023/01/13 00:11:15;;;;;;;9.50;4.18;;;;;;;;;;4960941;28;20065;-65
2023/01/13 00:13:41;;;;;;;7.88;3.97;;;;;;;;;;4964886;28;20050;-66
2023/01/13 00:16:11;;;;;;;7.47;3.60;;;;;;;;;;4948849;28;20047;-66
2023/01/13 00:18:37;;;;;;;5.68;3.53;;;;;;;;;;4960206;28;20050;-66
2023/01/13 00:21:05;;;;;;;10.02;3.60;;;;;;;;;;4954055;28;20053;-73
2023/01/13 00:23:33;;;;;;;6.63;3.47;;;;;;;;;;4959314;28;20485;-77
2023/01/13 00:26:02;;;;;;;5.65;3.38;;;;;;;;;;4958689;28;20048;-66
2023/01/13 00:28:28;;;;;;;6.80;3.78;;;;;;;;;;4957750;28;20146;-64
2023/01/13 00:30:57;;;;;;;7.43;4.00;;;;;;;;;;4956311;28;20051;-72
2023/01/13 00:33:24;;;;;;;5.35;3.60;;;;;;;;;;4956074;28;20593;-66
2023/01/13 00:36:01;;;;;;;7.03;3.70;;;;;;;;;;4956670;28;20046;-70
2023/01/13 00:38:27;;;;;;;6.82;3.75;;;;;;;;;;4956341;28;20408;-65
2023/01/13 00:41:05;;;;;;;6.70;3.55;;;;;;;;;;4963860;28;20527;-69
2023/01/13 00:43:33;;;;;;;10.18;3.60;;;;;;;;;;4956291;28;20182;-77
2023/01/13 00:45:59;;;;;;;7.15;3.90;;;;;;;;;;4958535;28;20066;-71
2023/01/13 00:48:27;;;;;;;7.97;3.70;;;;;;;;;;4957599;28;20183;-64
2023/01/13 00:51:10;;;;;;;7.00;4.03;;;;;;;;;;4957471;28;20101;-67
2023/01/13 00:53:39;;;;;;;6.97;4.10;;;;;;;;;;4950667;28;20054;-64
2023/01/13 00:56:24;;;;;;;10.25;4.50;;;;;;;;;;4961085;28;20066;-67
2023/01/13 00:58:55;;;;;;;6.03;3.90;;;;;;;;;;4966757;28;20059;-73
2023/01/13 01:01:22;;;;;;;8.40;4.05;;;;;;;;;;4953345;28;20059;-66
2023/01/13 01:03:50;;;;;;;7.45;4.50;;;;;;;;;;4960118;28;20062;-67
2023/01/13 01:06:19;;;;;;;7.97;4.38;;;;;;;;;;4960354;28;20039;-67
2023/01/13 01:08:45;;;;;;;7.20;4.15;;;;;;;;;;4955484;28;20058;-72
2023/01/13 01:11:13;;;;;;;8.13;4.05;;;;;;;;;;4959180;28;20637;-67
2023/01/13 01:13:40;;;;;;;8.20;4.32;;;;;;;;;;4950709;28;20055;-75
2023/01/13 01:16:16;;;;;;;7.18;4.45;;;;;;;;;;4950751;28;20069;-66
2023/01/13 01:18:44;;;;;;;7.93;4.30;;;;;;;;;;4952164;28;20070;-67
2023/01/13 01:21:11;;;;;;;7.93;4.35;;;;;;;;;;4959960;28;20785;-67
2023/01/13 01:23:38;;;;;;;10.85;4.10;;;;;;;;;;4951758;28;20058;-70
2023/01/13 01:26:22;;;;;;;8.85;4.38;;;;;;;;;;4962195;28;20717;-65
2023/01/13 01:28:48;;;;;;;11.23;4.63;;;;;;;;;;4953206;28;20063;-74
2023/01/13 01:31:19;;;;;;;12.48;4.60;;;;;;;;;;4960340;28;20035;-75
2023/01/13 01:33:46;;;;;;;8.93;4.35;;;;;;;;;;4955307;28;20047;-72
2023/01/13 01:36:15;;;;;;;8.38;4.65;;;;;;;;;;4950172;28;20058;-76
2023/01/13 01:38:41;;;;;;;10.80;4.57;;;;;;;;;;4954689;28;20122;-69
2023/01/13 01:41:09;;;;;;;7.95;3.88;;;;;;;;;;4957157;28;20074;-72
2023/01/13 01:44:01;;;;;;;8.52;4.25;;;;;;;;;;4955957;28;20047;-69
2023/01/13 01:46:35;;;;;;;7.68;4.40;;;;;;;;;;4951414;28;20224;-74
2023/01/13 01:49:04;;;;;;;10.93;4.90;;;;;;;;;;4954711;28;20054;-67
2023/01/13 01:51:34;;;;;;;8.00;4.10;;;;;;;;;;4952498;28;20167;-68
2023/01/13 01:54:03;;;;;;;9.05;4.50;;;;;;;;;;4952894;28;20070;-73
2023/01/13 01:56:30;;;;;;;8.65;4.40;;;;;;;;;;4961411;28;20141;-73
2023/01/13 01:58:56;;;;;;;8.77;4.03;;;;;;;;;;4957464;28;20390;-68
2023/01/13 02:01:21;;;;;;;8.82;4.63;;;;;;;;;;4948718;28;20102;-64
2023/01/13 02:04:05;;;;;;;8.07;4.32;;;;;;;;;;4950913;28;20070;-76
2023/01/13 02:06:31;;;;;;;9.95;4.40;;;;;;;;;;4959364;28;20133;-70
2023/01/13 02:08:59;;;;;;;10.23;4.35;;;;;;;;;;4949755;28;20057;-68
2023/01/13 02:14:15;;;;;;;7.38;3.78;;;;;;;;;;4953799;28;20417;-71
2023/01/13 02:17:06;;;;;;;6.35;3.80;;;;;;;;;;4958689;28;20097;-73
2023/01/13 02:19:44;;;;;;;9.18;4.03;;;;;;;;;;4955351;28;20115;-76
2023/01/13 02:22:24;;;;;;;5.32;3.67;;;;;;;;;;4959274;28;20043;-72
2023/01/13 02:25:09;;;;;;;6.57;4.03;;;;;;;;;;4959255;28;20413;-67
2023/01/13 02:28:09;;;;;;;6.00;3.42;;;;;;;;;;4951671;28;20090;-73
2023/01/13 02:34:08;;;;;;;9.07;3.47;;;;;;;;;;4953610;28;20205;-65
2023/01/13 02:36:50;;;;;;;8.05;3.88;;;;;;;;;;4955814;28;20456;-71
2023/01/13 02:39:28;;;;;;;5.65;3.40;;;;;;;;;;4954517;28;20831;-73
2023/01/13 02:45:31;;;;;;;6.03;3.63;;;;;;;;;;4952735;28;20540;-70
2023/01/13 02:47:59;;;;;;;6.00;3.58;;;;;;;;;;4955780;28;20067;-73
2023/01/13 02:50:34;;;;;;;11.10;3.80;;;;;;;;;;4950124;28;20070;-67
2023/01/13 02:53:07;;;;;;;7.80;3.92;;;;;;;;;;4955569;28;20042;-70
2023/01/13 02:55:46;;;;;;;5.72;3.78;;;;;;;;;;4955041;28;20149;-67
2023/01/13 02:58:15;;;;;;;8.77;4.18;;;;;;;;;;4950620;28;20047;-71
2023/01/13 03:00:43;;;;;;;6.75;4.28;;;;;;;;;;4952461;28;20050;-66
2023/01/13 03:03:09;;;;;;;6.95;4.07;;;;;;;;;;4960487;28;20492;-68
2023/01/13 03:05:35;;;;;;;8.35;3.85;;;;;;;;;;4948849;28;20050;-66
2023/01/13 03:08:17;;;;;;;5.13;3.22;;;;;;;;;;4956967;28;20058;-68
2023/01/13 03:10:48;;;;;;;6.10;3.50;;;;;;;;;;4953127;28;20042;-75
2023/01/13 03:13:46;;;;;;;6.43;3.80;;;;;;;;;;4960060;28;20150;-66
2023/01/13 03:16:43;;;;;;;8.25;3.60;;;;;;;;;;4950069;28;20078;-70
2023/01/13 03:19:15;;;;;;;8.40;3.53;;;;;;;;;;4955010;28;20055;-71
2023/01/13 03:22:06;;;;;;;6.10;3.60;;;;;;;;;;4957210;28;20038;-69
2023/01/13 03:24:41;;;;;;;5.45;3.40;;;;;;;;;;4954853;28;20489;-71
2023/01/13 03:27:27;;;;;;;8.20;3.30;;;;;;;;;;4958564;28;20454;-65
2023/01/13 03:30:13;;;;;;;5.43;3.38;;;;;;;;;;4950921;28;20085;-72
2023/01/13 03:32:45;;;;;;;5.30;2.88;;;;;;;;;;4952447;28;20501;-70
2023/01/13 03:35:29;;;;;;;7.88;3.40;;;;;;;;;;4950905;28;20430;-65
2023/01/13 03:38:22;;;;;;;5.65;3.13;;;;;;;;;;4955355;28;20074;-72
2023/01/13 03:40:52;;;;;;;8.43;3.65;;;;;;;;;;4948750;28;20051;-77
2023/01/13 03:46:17;;;;;;;7.05;3.40;;;;;;;;;;4954933;28;20055;-64
2023/01/13 03:48:45;;;;;;;6.55;3.53;;;;;;;;;;4956367;28;20047;-67
2023/01/13 03:51:16;;;;;;;6.38;3.40;;;;;;;;;;4957789;28;20311;-72
2023/01/13 03:53:50;;;;;;;7.00;3.60;;;;;;;;;;4960673;28;20053;-65
2023/01/13 03:56:22;;;;;;;5.38;3.42;;;;;;;;;;4957247;28;20058;-70
2023/01/13 03:58:51;;;;;;;6.20;3.30;;;;;;;;;;4955715;28;20411;-71
2023/01/13 04:01:23;;;;;;;4.68;3.20;;;;;;;;;;4951421;28;20062;-70
2023/01/13 04:04:14;;;;;;;7.05;3.60;;;;;;;;;;4952989;28;20508;-67
2023/01/13 04:07:16;;;;;;;6.22;3.40;;;;;;;;;;4955803;28;20043;-66
2023/01/13 04:10:04;;;;;;;7.22;3.30;;;;;;;;;;4948537;28;20051;-72
2023/01/13 04:13:00;;;;;;;7.13;3.03;;;;;;;;;;4961990;28;20082;-66
2023/01/13 04:15:30;;;;;;;7.95;3.78;;;;;;;;;;4955315;28;20059;-72
2023/01/13 04:18:23;;;;;;;5.50;3.17;;;;;;;;;;4954798;28;20674;-68
2023/01/13 04:20:51;;;;;;;9.15;3.20;;;;;;;;;;4959334;28;20047;-70
2023/01/13 04:23:18;;;;;;;8.38;4.05;;;;;;;;;;4959584;28;20062;-66
2023/01/13 04:25:44;;;;;;;7.43;3.88;;;;;;;;;;4960883;28;20071;-65
2023/01/13 04:28:12;;;;;;;6.80;3.63;;;;;;;;;;4954861;28;20507;-67
2023/01/13 04:30:38;;;;;;;5.55;2.90;;;;;;;;;;4956569;28;20074;-74
2023/01/13 04:33:04;;;;;;;5.00;3.13;;;;;;;;;;4964022;28;20113;-68
2023/01/13 04:35:30;;;;;;;5.88;3.17;;;;;;;;;;4960744;28;20497;-70
2023/01/13 04:38:03;;;;;;;6.30;3.47;;;;;;;;;;4949019;28;20055;-65
2023/01/13 04:40:29;;;;;;;5.13;2.95;;;;;;;;;;4953774;28;20047;-70
2023/01/13 04:42:55;;;;;;;6.40;2.75;;;;;;;;;;4954034;28;20054;-65
2023/01/13 04:45:21;;;;;;;5.38;2.70;;;;;;;;;;4955315;28;20174;-67
2023/01/13 04:47:47;;;;;;;4.90;2.60;;;;;;;;;;4965387;28;20540;-71
2023/01/13 04:50:14;;;;;;;5.32;2.63;;;;;;;;;;4956748;28;20405;-71
2023/01/13 04:52:40;;;;;;;4.80;2.97;;;;;;;;;;4964805;28;20046;-65
2023/01/13 04:55:07;;;;;;;6.15;3.28;;;;;;;;;;4959716;28;20059;-64
2023/01/13 04:57:33;;;;;;;8.50;3.30;;;;;;;;;;4947098;28;20466;-72
2023/01/13 05:00:00;;;;;;;6.00;3.13;;;;;;;;;;4949381;28;20486;-65
2023/01/13 05:02:26;;;;;;;5.38;2.17;;;;;;;;;;4947970;28;20444;-75
2023/01/13 05:04:52;;;;;;;4.05;2.58;;;;;;;;;;4957689;28;20194;-67
2023/01/13 05:07:18;;;;;;;4.30;2.20;;;;;;;;;;4957740;28;20069;-72
2023/01/13 05:09:44;;;;;;;4.57;2.20;;;;;;;;;;4952431;28;20490;-66
2023/01/13 05:17:41;;;;;;;;;;;;;;;;;;4958280;28;20062;-71
2023/01/13 05:20:08;;;;;;;7.03;2.30;;;;;;;;;;4974976;28;19931;-66
2023/01/13 05:25:21;;;;;;;3.63;2.20;;;;;;;;;;4953024;28;20047;-67
2023/01/13 05:27:58;;;;;;;4.75;2.58;;;;;;;;;;4952954;28;20059;-66
2023/01/13 05:30:30;;;;;;;3.83;2.10;;;;;;;;;;4955667;28;20133;-68
2023/01/13 05:32:56;;;;;;;5.70;2.28;;;;;;;;;;4960156;28;20161;-72
2023/01/13 05:35:23;;;;;;;2.72;2.13;;;;;;;;;;4960350;28;20059;-69
2023/01/13 05:37:49;;;;;;;3.95;2.30;;;;;;;;;;4956492;28;20497;-65
2023/01/13 05:43:18;;;;;;;5.38;3.20;;;;;;;;;;4958959;28;20066;-80
2023/01/13 05:46:06;;;;;;;5.82;2.88;;;;;;;;;;4954170;28;20066;-67
2023/01/13 05:48:38;;;;;;;5.05;2.30;;;;;;;;;;4963751;28;20051;-72
2023/01/13 05:51:06;;;;;;;4.72;2.53;;;;;;;;;;4961786;28;20059;-68
2023/01/13 05:53:33;;;;;;;8.55;2.65;;;;;;;;;;4957309;28;20427;-73
2023/01/13 05:55:59;;;;;;;6.03;2.58;;;;;;;;;;4959604;28;20051;-67
2023/01/13 05:58:26;;;;;;;4.03;2.50;;;;;;;;;;4954802;28;20082;-65
2023/01/13 06:00:57;;;;;;;7.22;2.80;;;;;;;;;;4950062;28;20746;-75
2023/01/13 06:03:23;;;;;;;4.65;2.63;;;;;;;;;;4949845;28;20067;-70
2023/01/13 06:05:50;;;;;;;8.73;2.85;;;;;;;;;;4952339;28;20047;-65
2023/01/13 06:08:17;;;;;;;7.22;2.47;;;;;;;;;;4949908;28;20470;-71
2023/01/13 06:10:43;;;;;;;9.60;2.65;;;;;;;;;;4948133;28;20418;-74
2023/01/13 06:13:09;;;;;;;9.95;2.72;;;;;;;;;;4954416;28;20042;-68
2023/01/13 06:15:35;;;;;;;5.57;2.50;;;;;;;;;;4952350;28;20050;-71
2023/01/13 06:18:02;;;;;;;4.35;2.63;;;;;;;;;;4955859;28;20716;-70
2023/01/13 06:20:28;;;;;;;5.05;2.40;;;;;;;;;;4956132;28;20050;-72
2023/01/13 06:22:54;;;;;;;7.25;2.95;;;;;;;;;;4956460;28;20339;-69
2023/01/13 06:25:28;;;;;;;6.40;2.83;;;;;;;;;;4956240;28;20043;-72
2023/01/13 06:27:57;;;;;;;9.30;3.20;;;;;;;;;;4949245;28;20515;-69
2023/01/13 06:30:23;;;;;;;4.72;2.85;;;;;;;;;;4969687;28;20480;-74
2023/01/13 06:32:54;;;;;;;5.10;2.90;;;;;;;;;;4949160;28;20058;-71
2023/01/13 06:35:27;;;;;;;5.85;3.05;;;;;;;;;;4953982;28;20058;-71
2023/01/13 06:37:56;;;;;;;7.17;3.07;;;;;;;;;;4952408;28;20066;-73
2023/01/13 06:40:23;;;;;;;9.90;3.40;;;;;;;;;;4960702;28;20374;-72
2023/01/13 06:45:35;;;;;;;4.97;2.95;;;;;;;;;;4956300;28;20793;-67
2023/01/13 06:48:01;;;;;;;5.32;3.30;;;;;;;;;;4955340;28;20118;-69
2023/01/13 06:50:27;;;;;;;8.57;3.90;;;;;;;;;;4956186;28;20040;-72
2023/01/13 06:52:53;;;;;;;7.22;3.15;;;;;;;;;;4954742;28;20066;-76
2023/01/13 06:55:19;;;;;;;10.27;3.63;;;;;;;;;;4948904;28;20051;-76
2023/01/13 06:57:47;;;;;;;12.85;4.05;;;;;;;;;;4957543;28;20047;-74
2023/01/13 07:00:14;;;;;;;12.65;3.63;;;;;;;;;;4955168;28;20685;-68
2023/01/13 07:02:40;;;;;;;8.98;3.83;;;;;;;;;;4946320;28;20043;-70
2023/01/13 07:05:06;;;;;;;6.65;3.33;;;;;;;;;;4953006;28;20051;-67
2023/01/13 07:07:33;;;;;;;9.80;3.20;;;;;;;;;;4955234;28;20043;-68
2023/01/13 07:09:59;;;;;;;7.05;3.55;;;;;;;;;;4956021;28;20110;-75
2023/01/13 07:12:25;;;;;;;8.75;3.10;;;;;;;;;;4952147;28;20501;-72
2023/01/13 07:17:35;;;;;;;8.63;3.33;;;;;;;;;;4948187;28;20109;-70
2023/01/13 07:20:01;;;;;;;7.93;3.28;;;;;;;;;;4956731;28;20047;-75
2023/01/13 07:22:27;;;;;;;10.15;2.97;;;;;;;;;;4950263;28;20051;-71
2023/01/13 07:24:53;;;;;;;10.18;3.97;;;;;;;;;;4952151;28;20051;-68
2023/01/13 07:27:19;;;;;;;10.25;4.57;;;;;;;;;;4953588;28;20051;-75
2023/01/13 07:29:45;;;;;;;9.45;4.63;;;;;;;;;;4955423;28;20061;-70
2023/01/13 07:32:11;;;;;;;12.48;4.45;;;;;;;;;;4953596;28;20049;-67
2023/01/13 07:34:36;;;;;;;15.18;4.97;;;;;;;;;;4954866;28;20039;-68
2023/01/13 07:37:02;;;;;;;7.35;4.10;;;;;;;;;;4953324;28;20055;-72
2023/01/13 07:39:28;;;;;;;20.15;4.72;;;;;;;;;;4962261;28;20054;-66
2023/01/13 07:44:39;;;;;;;11.27;4.70;;;;;;;;;;4963765;28;20043;-69
2023/01/13 07:47:07;;;;;;;9.40;4.53;;;;;;;;;;4957740;28;20122;-71
2023/01/13 07:49:33;;;;;;;10.63;5.00;;;;;;;;;;4959819;28;20733;-71
2023/01/13 07:51:59;;;;;;;17.83;5.03;;;;;;;;;;4952655;28;20059;-77
2023/01/13 07:54:25;;;;;;;10.90;4.80;;;;;;;;;;4955285;28;20387;-67
2023/01/13 07:56:51;;;;;;;15.13;4.72;;;;;;;;;;4960110;28;20058;-68
2023/01/13 07:59:17;;;;;;;11.48;4.65;;;;;;;;;;4960748;28;20046;-68
2023/01/13 08:01:43;;;;;;;12.57;4.50;;;;;;;;;;4963392;28;20042;-75
2023/01/13 08:04:08;;;;;;;19.42;4.90;;;;;;;;;;4962848;28;20496;-68
2023/01/13 08:06:35;;;;;;;15.90;4.78;;;;;;;;;;4962718;28;20070;-69
2023/01/13 08:09:01;;;;;;;18.30;4.63;;;;;;;;;;4958022;28;20061;-67
2023/01/13 08:11:27;;;;;;;14.00;5.05;;;;;;;;;;4964208;28;20054;-69
2023/01/13 08:13:56;;;;;;;15.48;5.45;;;;;;;;;;4959683;28;20440;-76
2023/01/13 08:16:23;;;;;;;15.00;4.97;;;;;;;;;;4960348;28;20051;-68
2023/01/13 08:18:48;;;;;;;16.83;5.30;;;;;;;;;;4960874;28;20153;-76
2023/01/13 08:21:14;;;;;;;18.33;5.25;;;;;;;;;;4958863;28;20043;-71
2023/01/13 08:23:42;;;;;;;12.35;5.45;;;;;;;;;;4958051;28;20189;-70
2023/01/13 08:26:14;;;;;;;19.25;5.18;;;;;;;;;;4962263;28;20047;-67
2023/01/13 08:28:40;;;;;;;9.43;4.60;;;;;;;;;;4961372;28;21161;-68
2023/01/13 08:31:12;;;;;;;11.75;5.13;;;;;;;;;;4959440;28;20045;-65
2023/01/13 08:33:39;;;;;;;15.40;5.43;;;;;;;;;;4955135;28;20523;-69
2023/01/13 08:36:07;;;;;;;18.38;6.50;;;;;;;;;;4956755;28;20062;-66
2023/01/13 08:38:34;;;;;;;22.27;7.38;;;;;;;;;;4954951;28;20051;-68
2023/01/13 08:41:06;;;;;;;18.00;7.57;;;;;;;;;;4959271;28;20038;-68
2023/01/13 08:43:32;;;;;;;25.63;7.82;;;;;;;;;;4953524;28;20070;-74
2023/01/13 08:46:00;;;;;;;15.25;6.07;;;;;;;;;;4951782;28;20073;-67
2023/01/13 08:48:27;;;;;;;15.95;6.28;;;;;;;;;;4956957;28;20058;-70
2023/01/13 08:50:59;;;;;;;22.52;6.88;;;;;;;;;;4958392;28;20560;-69
2023/01/13 08:53:25;;;;;;;13.45;6.40;;;;;;;;;;4952220;28;20059;-66
2023/01/13 08:55:51;;;;;;;16.02;5.78;;;;;;;;;;4951210;28;20062;-68
2023/01/13 08:58:17;;;;;;;9.93;4.72;;;;;;;;;;4953460;28;20043;-68
2023/01/13 09:00:43;;;;;;;9.65;4.93;;;;;;;;;;4949721;28;20051;-71
2023/01/13 09:03:10;;;;;;;13.43;5.10;;;;;;;;;;4960205;28;20046;-74
2023/01/13 09:05:36;;;;;;;13.45;4.25;;;;;;;;;;4957645;28;20051;-69
2023/01/13 09:08:02;;;;;;;12.35;3.92;;;;;;;;;;4950906;28;20075;-66
2023/01/13 09:10:27;;;;;;;13.40;4.05;;;;;;;;;;4954156;28;20051;-74
2023/01/13 09:13:11;;;;;;;13.00;4.38;;;;;;;;;;4956540;28;20229;-68
2023/01/13 09:15:39;;;;;;;16.50;5.00;;;;;;;;;;4953161;28;20054;-73
2023/01/13 09:18:05;;;;;;;13.40;5.43;;;;;;;;;;4955409;28;20055;-75
2023/01/13 09:20:31;;;;;;;13.43;6.03;;;;;;;;;;4953072;28;20058;-70
2023/01/13 09:22:57;;;;;;;12.07;5.70;;;;;;;;;;4957195;28;20046;-67
2023/01/13 09:25:23;;;;;;;13.45;5.32;;;;;;;;;;4955125;28;20448;-70
2023/01/13 09:27:49;;;;;;;12.45;5.18;;;;;;;;;;4951187;28;20054;-70
2023/01/13 09:30:15;;;;;;;12.93;5.05;;;;;;;;;;4958669;28;20046;-67
2023/01/13 09:32:41;;;;;;;13.95;5.13;;;;;;;;;;4954826;28;20188;-72
2023/01/13 09:35:08;;;;;;;12.85;5.68;;;;;;;;;;4948956;28;20062;-74
2023/01/13 09:37:37;;;;;;;14.52;5.07;;;;;;;;;;4954697;28;20057;-67
2023/01/13 09:40:11;;;;;;;11.63;4.47;;;;;;;;;;4959435;28;20047;-68
2023/01/13 09:45:39;;;;;;;24.27;5.75;;;;;;;;;;4949641;28;20376;-78
2023/01/13 09:48:14;;;;;;;18.50;5.68;;;;;;;;;;4955928;28;20043;-69
2023/01/13 09:50:53;;;;;;;11.70;4.28;;;;;;;;;;4956957;28;20599;-70
2023/01/13 09:53:31;;;;;;;20.75;5.28;;;;;;;;;;4951345;28;20101;-69
2023/01/13 09:55:57;;;;;;;16.85;4.95;;;;;;;;;;4955874;28;20170;-70
2023/01/13 09:58:23;;;;;;;18.75;5.50;;;;;;;;;;4960784;28;20106;-76
2023/01/13 10:01:04;;;;;;;12.63;5.38;;;;;;;;;;4957102;28;20411;-70
2023/01/13 10:03:32;;;;;;;15.23;5.43;;;;;;;;;;4955595;28;20039;-65
2023/01/13 10:06:11;;;;;;;10.48;4.72;;;;;;;;;;4951761;28;20150;-79
2023/01/13 10:08:40;;;;;;;13.23;4.82;;;;;;;;;;4957670;28;20109;-68
2023/01/13 10:14:09;;;;;;;11.60;5.65;;;;;;;;;;4961087;28;20076;-66
2023/01/13 10:16:47;;;;;;;9.93;5.00;;;;;;;;;;4955943;28;20039;-71
2023/01/13 10:19:37;;;;;;;12.00;5.30;;;;;;;;;;4953902;28;20061;-69
2023/01/13 10:22:05;;;;;;;9.60;4.35;;;;;;;;;;4957866;28;20070;-70
2023/01/13 10:24:58;;;;;;;8.90;4.15;;;;;;;;;;4957206;28;20050;-70
2023/01/13 10:27:30;;;;;;;11.75;3.97;;;;;;;;;;4956853;28;20673;-74
2023/01/13 10:29:56;;;;;;;9.30;4.35;;;;;;;;;;4959691;28;20067;-70
2023/01/13 10:32:22;;;;;;;12.35;4.18;;;;;;;;;;4954362;28;20106;-67
2023/01/13 10:34:50;;;;;;;14.77;5.00;;;;;;;;;;4962982;28;20054;-66
2023/01/13 10:37:27;;;;;;;10.80;3.60;;;;;;;;;;4962404;28;20055;-66
2023/01/13 10:39:55;;;;;;;13.02;2.97;;;;;;;;;;4958741;28;20058;-68
2023/01/13 10:42:22;;;;;;;11.82;2.67;;;;;;;;;;4956537;28;20501;-77
2023/01/13 10:44:50;;;;;;;6.80;2.70;;;;;;;;;;4956328;28;20114;-65
2023/01/13 10:47:19;;;;;;;16.45;3.28;;;;;;;;;;4958046;28;20042;-69
2023/01/13 10:50:12;;;;;;;6.82;2.50;;;;;;;;;;4954944;28;20059;-65
2023/01/13 10:52:42;;;;;;;5.28;2.40;;;;;;;;;;4952501;28;20148;-67
2023/01/13 10:55:30;;;;;;;6.20;2.38;;;;;;;;;;4954194;28;20046;-75
2023/01/13 10:57:56;;;;;;;7.70;2.90;;;;;;;;;;4955281;28;20047;-65
2023/01/13 11:00:27;;;;;;;7.82;2.53;;;;;;;;;;4956663;28;20097;-74
2023/01/13 11:03:12;;;;;;;10.35;3.40;;;;;;;;;;4961405;28;20076;-74
2023/01/13 11:05:38;;;;;;;10.20;3.28;;;;;;;;;;4961405;28;20209;-70
2023/01/13 11:08:04;;;;;;;11.05;2.78;;;;;;;;;;4956422;28;20058;-67
2023/01/13 11:10:32;;;;;;;8.25;3.15;;;;;;;;;;4961317;28;20070;-72
2023/01/13 11:13:18;;;;;;;11.00;2.88;;;;;;;;;;4963625;28;20046;-70
2023/01/13 11:16:02;;;;;;;12.77;3.65;;;;;;;;;;4960837;28;20051;-67
2023/01/13 11:18:30;;;;;;;9.10;3.80;;;;;;;;;;4954775;28;20050;-68
2023/01/13 11:20:58;;;;;;;9.23;3.67;;;;;;;;;;4975660;28;20043;-69
2023/01/13 11:23:36;;;;;;;13.30;3.90;;;;;;;;;;4965933;28;20113;-70
2023/01/13 11:26:21;;;;;;;13.57;3.80;;;;;;;;;;4963703;28;20070;-79
2023/01/13 11:29:02;;;;;;;13.65;3.75;;;;;;;;;;4960678;28;20517;-67
2023/01/13 11:31:35;;;;;;;12.95;4.10;;;;;;;;;;4972787;28;20047;-75
2023/01/13 11:34:19;;;;;;;8.20;4.10;;;;;;;;;;4959885;28;20051;-65
2023/01/13 11:36:49;;;;;;;6.93;3.50;;;;;;;;;;4954822;28;20063;-68
2023/01/13 11:39:33;;;;;;;13.65;3.75;;;;;;;;;;4965086;28;20061;-79
2023/01/13 11:42:21;;;;;;;;;;;;;;;;;;4957345;28;20349;-68
2023/01/13 11:45:15;;;;;;;11.23;4.00;;;;;;;;;;4960787;28;19928;-69
2023/01/13 11:47:44;;;;;;;10.43;3.40;;;;;;;;;;4957622;28;20118;-68
2023/01/13 11:50:35;;;;;;;7.25;3.55;;;;;;;;;;4959739;28;20782;-70
2023/01/13 11:53:41;;;;;;;9.48;3.13;;;;;;;;;;4951068;28;20102;-68
2023/01/13 11:56:33;;;;;;;9.02;3.25;;;;;;;;;;4952909;28;20051;-71
2023/01/13 11:59:27;;;;;;;10.20;3.75;;;;;;;;;;4955899;28;20501;-78
2023/01/13 12:01:59;;;;;;;7.05;3.35;;;;;;;;;;4957741;28;20264;-70
2023/01/13 12:04:36;;;;;;;8.05;4.22;;;;;;;;;;4961037;28;20058;-67
2023/01/13 12:07:13;;;;;;;6.05;3.30;;;;;;;;;;4960291;28;20047;-70
2023/01/13 12:10:07;;;;;;;6.78;3.00;;;;;;;;;;4960213;28;20523;-67
2023/01/13 12:13:04;;;;;;;7.45;3.00;;;;;;;;;;4964098;28;20159;-74
2023/01/13 12:15:45;;;;;;;8.50;3.35;;;;;;;;;;4957920;28;20047;-72
2023/01/13 12:18:28;;;;;;;7.25;3.25;;;;;;;;;;4956487;28;20054;-76
2023/01/13 12:21:11;;;;;;;9.75;3.65;;;;;;;;;;4974345;28;20058;-65
2023/01/13 12:23:45;;;;;;;12.88;3.35;;;;;;;;;;4963891;28;20128;-67
2023/01/13 12:26:15;;;;;;;8.60;3.38;;;;;;;;;;4961633;28;20062;-69
2023/01/13 12:28:53;;;;;;;8.32;2.95;;;;;;;;;;4962920;28;20074;-69
2023/01/13 12:31:21;;;;;;;12.05;3.30;;;;;;;;;;4964172;28;20460;-72
2023/01/13 12:33:54;;;;;;;9.32;2.97;;;;;;;;;;4970398;28;20039;-66
2023/01/13 12:36:30;;;;;;;7.55;3.08;;;;;;;;;;4953258;28;20401;-73
2023/01/13 12:39:20;;;;;;;4.95;2.85;;;;;;;;;;4958008;28;20051;-72
2023/01/13 12:45:10;;;;;;;5.82;2.85;;;;;;;;;;4952678;28;20117;-68
2023/01/13 12:47:44;;;;;;;7.97;2.80;;;;;;;;;;4961180;28;20054;-66
2023/01/13 12:50:25;;;;;;;5.93;3.27;;;;;;;;;;4955500;28;20046;-67
2023/01/13 12:52:59;;;;;;;5.32;3.00;;;;;;;;;;4952335;28;20279;-67
2023/01/13 12:55:35;;;;;;;4.53;2.63;;;;;;;;;;4956199;28;20070;-67
2023/01/13 12:58:06;;;;;;;6.22;2.97;;;;;;;;;;4964981;28;20059;-67
2023/01/13 13:00:39;;;;;;;6.15;3.20;;;;;;;;;;4961765;28;20063;-68
2023/01/13 13:03:11;;;;;;;5.60;2.83;;;;;;;;;;4952942;28;20097;-70
2023/01/13 13:06:01;;;;;;;5.22;2.70;;;;;;;;;;4964469;28;20053;-66
2023/01/13 13:08:48;;;;;;;7.90;2.90;;;;;;;;;;4960093;28;20425;-74
2023/01/13 13:14:01;;;;;;;7.28;3.05;;;;;;;;;;4960565;28;20413;-67
2023/01/13 13:16:30;;;;;;;5.35;3.25;;;;;;;;;;4954241;28;20044;-68
2023/01/13 13:19:18;;;;;;;5.95;3.15;;;;;;;;;;4957728;28;20042;-72
2023/01/13 13:22:06;;;;;;;5.50;3.35;;;;;;;;;;4952735;28;20414;-69
2023/01/13 13:24:32;;;;;;;4.35;2.78;;;;;;;;;;4955555;28;20059;-69
2023/01/13 13:27:15;;;;;;;2.88;2.17;;;;;;;;;;4954398;28;20057;-67
2023/01/13 13:30:02;;;;;;;4.78;2.50;;;;;;;;;;4953386;28;20165;-68
2023/01/13 13:32:55;;;;;;;3.83;1.80;;;;;;;;;;4952069;28;20051;-69
2023/01/13 13:35:31;;;;;;;2.63;1.70;;;;;;;;;;4952454;28;20055;-73
2023/01/13 13:46:47;;;;;;;3.72;2.22;;;;;;;;;;4955469;28;20051;-66
2023/01/13 13:49:13;;;;;;;4.28;2.20;;;;;;;;;;4948609;28;20043;-67
2023/01/13 13:51:51;;;;;;;7.43;2.83;;;;;;;;;;4950803;28;20078;-69
2023/01/13 13:54:21;;;;;;;4.85;1.88;;;;;;;;;;4944986;28;20045;-69
2023/01/13 13:56:49;;;;;;;12.57;4.00;;;;;;;;;;4952125;28;20082;-66
2023/01/13 13:59:23;;;;;;;6.68;4.03;;;;;;;;;;4958797;28;20134;-68
2023/01/13 14:01:59;;;;;;;;;;;;;;;;;;4955763;28;20031;-69
2023/01/13 14:04:34;;;;;;;10.68;5.03;;;;;;;;;;4960950;28;19922;-65
2023/01/13 14:07:05;;;;;;;13.48;5.53;;;;;;;;;;4953457;28;20054;-69
2023/01/13 14:09:45;;;;;;;9.38;4.97;;;;;;;;;;4949944;28;20047;-71
2023/01/13 14:12:18;;;;;;;8.40;4.72;;;;;;;;;;4953060;28;20117;-73
2023/01/13 14:14:46;;;;;;;11.88;5.40;;;;;;;;;;4957230;28;20408;-69
2023/01/13 14:17:29;;;;;;;10.88;4.10;;;;;;;;;;4953279;28;20054;-72
2023/01/13 14:20:06;;;;;;;11.32;4.80;;;;;;;;;;4957845;28;20142;-65
2023/01/13 14:22:33;;;;;;;11.38;4.75;;;;;;;;;;4950229;28;20472;-74
2023/01/13 14:25:00;;;;;;;9.73;5.25;;;;;;;;;;4953546;28;20141;-68
2023/01/13 14:27:28;;;;;;;11.18;5.63;;;;;;;;;;4952729;28;20051;-72
2023/01/13 14:29:57;;;;;;;9.82;4.68;;;;;;;;;;4959419;28;20039;-70
2023/01/13 14:32:35;;;;;;;8.80;4.40;;;;;;;;;;4955786;28;20054;-68
2023/01/13 14:35:05;;;;;;;9.23;4.20;;;;;;;;;;4964252;28;20050;-67
2023/01/13 14:37:40;;;;;;;12.60;5.10;;;;;;;;;;4957533;28;20051;-65
2023/01/13 14:40:26;;;;;;;;;;;;;;;;;;4965112;28;20455;-78
2023/01/13 14:43:03;;;;;;;8.05;4.63;;;;;;;;;;4956933;28;19926;-71
2023/01/13 14:45:32;;;;;;;10.27;4.72;;;;;;;;;;4960326;28;20051;-69
2023/01/13 14:48:00;;;;;;;11.60;4.35;;;;;;;;;;4958024;28;20051;-71
2023/01/13 14:50:31;;;;;;;6.57;3.45;;;;;;;;;;4960400;28;20440;-76
2023/01/13 14:52:59;;;;;;;9.65;3.88;;;;;;;;;;4956097;28;20055;-68
2023/01/13 14:55:39;;;;;;;9.60;5.18;;;;;;;;;;4954548;28;20047;-63
2023/01/13 14:58:20;;;;;;;8.52;4.13;;;;;;;;;;4952410;28;20465;-68
2023/01/13 15:00:47;;;;;;;8.85;3.28;;;;;;;;;;4963180;28;20446;-71
2023/01/13 15:03:15;;;;;;;9.95;3.97;;;;;;;;;;4963339;28;20117;-70
2023/01/13 15:05:46;;;;;;;6.75;2.85;;;;;;;;;;4960297;28;20043;-71
2023/01/13 15:08:13;;;;;;;8.00;3.20;;;;;;;;;;4950714;28;20524;-73
2023/01/13 15:10:51;;;;;;;5.90;3.03;;;;;;;;;;4956584;28;20039;-72
2023/01/13 15:13:45;;;;;;;9.05;3.10;;;;;;;;;;4962474;28;20062;-70
2023/01/13 15:16:21;;;;;;;9.27;4.00;;;;;;;;;;4954608;28;20197;-73
2023/01/13 15:18:47;;;;;;;10.50;3.85;;;;;;;;;;4951647;28;20043;-74
2023/01/13 15:21:14;;;;;;;7.80;4.53;;;;;;;;;;4959719;28;20042;-68
2023/01/13 15:23:41;;;;;;;7.80;4.10;;;;;;;;;;4962569;28;20043;-65
2023/01/13 15:26:20;;;;;;;9.75;3.63;;;;;;;;;;4958552;28;20050;-71
2023/01/13 15:28:47;;;;;;;9.55;3.95;;;;;;;;;;4944693;28;20091;-79
2023/01/13 15:31:13;;;;;;;12.38;4.18;;;;;;;;;;4951468;28;20144;-74
2023/01/13 15:33:40;;;;;;;11.80;3.78;;;;;;;;;;4959681;28;20050;-67
2023/01/13 15:36:19;;;;;;;12.52;4.50;;;;;;;;;;4955358;28;20050;-74
2023/01/13 15:38:45;;;;;;;11.35;4.43;;;;;;;;;;4948771;28;20567;-67
2023/01/13 15:41:11;;;;;;;9.73;3.47;;;;;;;;;;4955050;28;20047;-68
2023/01/13 15:46:36;;;;;;;12.02;4.45;;;;;;;;;;4952124;28;20053;-70
2023/01/13 15:49:17;;;;;;;8.57;3.30;;;;;;;;;;4964213;28;20050;-71
2023/01/13 15:51:43;;;;;;;6.00;3.10;;;;;;;;;;4960223;28;20051;-69
2023/01/13 15:54:10;;;;;;;7.13;2.33;;;;;;;;;;4963104;28;20058;-68
2023/01/13 15:56:38;;;;;;;6.10;2.65;;;;;;;;;;4962063;28;20051;-72
2023/01/13 15:59:10;;;;;;;8.88;3.58;;;;;;;;;;4963959;28;20049;-76
2023/01/13 16:01:36;;;;;;;14.07;2.83;;;;;;;;;;4954909;28;20117;-66
2023/01/13 16:04:02;;;;;;;5.80;2.30;;;;;;;;;;4954635;28;20051;-72
2023/01/13 16:06:35;;;;;;;3.85;2.05;;;;;;;;;;4960106;28;20070;-67